RYR64LV EGSS-EDDK
Flight info
| Callsign | RYR64LV |
|---|---|
| Flight time | 1h 3m |
| Altitude | 33000 |
| Route | CLN P44 RATLO M197 REDFA DCT TACHA DCT PAM L620 SONEB Z841 GETNI T858 KOPAG KOPAG1B |
| Aircraft | B738/M-SDE3FGILRWY/SB1 |
Departure
| Time | 2026-05-07 10:47 |
|---|---|
| Airport | London Stansted Airport (EGSS) |
Arrival
| Time | 2026-05-07 11:50 |
|---|---|
| Airport | Cologne Bonn Airport (EDDK) |
| Time | Latitude | Longitude | Altitude | Speed | Heading |
|---|---|---|---|---|---|
| 2026-05-07 10:08 | 51.89080 | 0.25644 | 351 ft | 0 kts | 43° |
| 2026-05-07 10:35 | 51.89071 | 0.25632 | 357 ft | 4 kts | 43° |
| 2026-05-07 10:35 | 51.89055 | 0.25607 | 360 ft | 3 kts | 42° |
| 2026-05-07 10:36 | 51.89036 | 0.25586 | 358 ft | 4 kts | 354° |
| 2026-05-07 10:36 | 51.89018 | 0.25604 | 361 ft | 4 kts | 313° |
| 2026-05-07 10:36 | 51.89009 | 0.25619 | 358 ft | 0 kts | 313° |
| 2026-05-07 10:40 | 51.89014 | 0.25611 | 351 ft | 4 kts | 313° |
| 2026-05-07 10:40 | 51.89047 | 0.25555 | 354 ft | 10 kts | 313° |
| 2026-05-07 10:40 | 51.89102 | 0.25459 | 355 ft | 12 kts | 313° |
| 2026-05-07 10:40 | 51.89162 | 0.25350 | 351 ft | 13 kts | 306° |
| 2026-05-07 10:41 | 51.89211 | 0.25228 | 351 ft | 13 kts | 304° |
| 2026-05-07 10:41 | 51.89235 | 0.25103 | 351 ft | 13 kts | 245° |
| 2026-05-07 10:41 | 51.89177 | 0.24979 | 351 ft | 16 kts | 224° |
| 2026-05-07 10:41 | 51.89084 | 0.24841 | 355 ft | 20 kts | 223° |
| 2026-05-07 10:42 | 51.88982 | 0.24687 | 351 ft | 20 kts | 223° |
| 2026-05-07 10:42 | 51.88879 | 0.24533 | 355 ft | 21 kts | 223° |
| 2026-05-07 10:42 | 51.88758 | 0.24352 | 350 ft | 26 kts | 223° |
| 2026-05-07 10:42 | 51.88627 | 0.24156 | 340 ft | 25 kts | 223° |
| 2026-05-07 10:43 | 51.88503 | 0.23970 | 340 ft | 23 kts | 223° |
| 2026-05-07 10:43 | 51.88387 | 0.23795 | 345 ft | 23 kts | 223° |
| 2026-05-07 10:43 | 51.88273 | 0.23625 | 344 ft | 22 kts | 223° |
| 2026-05-07 10:43 | 51.88159 | 0.23454 | 336 ft | 24 kts | 223° |
| 2026-05-07 10:44 | 51.88040 | 0.23276 | 337 ft | 23 kts | 223° |
| 2026-05-07 10:44 | 51.87926 | 0.23105 | 336 ft | 22 kts | 223° |
| 2026-05-07 10:44 | 51.87813 | 0.22936 | 339 ft | 22 kts | 223° |
| 2026-05-07 10:44 | 51.87704 | 0.22772 | 337 ft | 21 kts | 223° |
| 2026-05-07 10:45 | 51.87597 | 0.22612 | 334 ft | 21 kts | 223° |
| 2026-05-07 10:45 | 51.87493 | 0.22458 | 330 ft | 18 kts | 223° |
| 2026-05-07 10:45 | 51.87418 | 0.22339 | 325 ft | 14 kts | 232° |
| 2026-05-07 10:45 | 51.87411 | 0.22192 | 322 ft | 14 kts | 301° |
| 2026-05-07 10:46 | 51.87476 | 0.22073 | 321 ft | 14 kts | 313° |
| 2026-05-07 10:46 | 51.87544 | 0.22050 | 321 ft | 11 kts | 33° |
| 2026-05-07 10:46 | 51.87621 | 0.22163 | 323 ft | 31 kts | 43° |
| 2026-05-07 10:46 | 51.87971 | 0.22686 | 331 ft | 105 kts | 43° |
| 2026-05-07 10:47 | 51.88664 | 0.23727 | 400 ft | 159 kts | 44° |
| 2026-05-07 10:47 | 51.89485 | 0.24964 | 1161 ft | 163 kts | 44° |
| 2026-05-07 10:47 | 51.90340 | 0.26252 | 1894 ft | 176 kts | 45° |
| 2026-05-07 10:47 | 51.91227 | 0.27841 | 2229 ft | 204 kts | 60° |
| 2026-05-07 10:48 | 51.91715 | 0.30017 | 2784 ft | 209 kts | 86° |
| 2026-05-07 10:48 | 51.91531 | 0.32379 | 3269 ft | 222 kts | 112° |
| 2026-05-07 10:48 | 51.90809 | 0.34766 | 3588 ft | 247 kts | 118° |
| 2026-05-07 10:48 | 51.90026 | 0.37284 | 4328 ft | 254 kts | 117° |
| 2026-05-07 10:49 | 51.89247 | 0.39865 | 5198 ft | 257 kts | 117° |
| 2026-05-07 10:49 | 51.88516 | 0.42298 | 5978 ft | 259 kts | 118° |
| 2026-05-07 10:49 | 51.87732 | 0.44946 | 6776 ft | 263 kts | 118° |
| 2026-05-07 10:49 | 51.86936 | 0.47649 | 7442 ft | 271 kts | 117° |
| 2026-05-07 10:50 | 51.86121 | 0.50424 | 8145 ft | 275 kts | 117° |
| 2026-05-07 10:50 | 51.85294 | 0.53239 | 8902 ft | 280 kts | 116° |
| 2026-05-07 10:50 | 51.84456 | 0.56091 | 9628 ft | 286 kts | 115° |
| 2026-05-07 10:50 | 51.83598 | 0.59053 | 10318 ft | 292 kts | 112° |
| 2026-05-07 10:51 | 51.83023 | 0.62318 | 10549 ft | 315 kts | 97° |
| 2026-05-07 10:51 | 51.82951 | 0.65942 | 10831 ft | 332 kts | 86° |
| 2026-05-07 10:51 | 51.83119 | 0.69737 | 11448 ft | 340 kts | 85° |
| 2026-05-07 10:51 | 51.83301 | 0.73568 | 12175 ft | 343 kts | 85° |
| 2026-05-07 10:52 | 51.83467 | 0.77439 | 12931 ft | 347 kts | 86° |
| 2026-05-07 10:52 | 51.83614 | 0.81133 | 13633 ft | 352 kts | 86° |
| 2026-05-07 10:52 | 51.83758 | 0.85054 | 14369 ft | 355 kts | 86° |
| 2026-05-07 10:52 | 51.83890 | 0.88728 | 15008 ft | 360 kts | 86° |
| 2026-05-07 10:53 | 51.84034 | 0.92789 | 15702 ft | 364 kts | 87° |
| 2026-05-07 10:53 | 51.84179 | 0.96900 | 16461 ft | 367 kts | 87° |
| 2026-05-07 10:53 | 51.84325 | 1.01042 | 17145 ft | 373 kts | 87° |
| 2026-05-07 10:53 | 51.84473 | 1.05265 | 17807 ft | 378 kts | 87° |
| 2026-05-07 10:54 | 51.84620 | 1.09510 | 18549 ft | 380 kts | 87° |
| 2026-05-07 10:54 | 51.84786 | 1.13804 | 19135 ft | 385 kts | 84° |
| 2026-05-07 10:54 | 51.85426 | 1.17713 | 19698 ft | 387 kts | 67° |
| 2026-05-07 10:54 | 51.86517 | 1.21704 | 20404 ft | 388 kts | 65° |
| 2026-05-07 10:55 | 51.87646 | 1.25696 | 20981 ft | 393 kts | 65° |
| 2026-05-07 10:55 | 51.88781 | 1.29735 | 21607 ft | 395 kts | 66° |
| 2026-05-07 10:55 | 51.89910 | 1.33814 | 22196 ft | 399 kts | 66° |
| 2026-05-07 10:55 | 51.91033 | 1.37937 | 22794 ft | 401 kts | 66° |
| 2026-05-07 10:56 | 51.92151 | 1.42088 | 23371 ft | 405 kts | 66° |
| 2026-05-07 10:56 | 51.93276 | 1.46290 | 23892 ft | 407 kts | 67° |
| 2026-05-07 10:56 | 51.94402 | 1.50511 | 24372 ft | 410 kts | 67° |
| 2026-05-07 10:56 | 51.95535 | 1.54767 | 24862 ft | 411 kts | 66° |
| 2026-05-07 10:57 | 51.96669 | 1.59028 | 25369 ft | 413 kts | 67° |
| 2026-05-07 10:57 | 51.97806 | 1.63309 | 25847 ft | 414 kts | 67° |
| 2026-05-07 10:57 | 51.98940 | 1.67619 | 26313 ft | 416 kts | 68° |
| 2026-05-07 10:57 | 51.99850 | 1.72084 | 26763 ft | 418 kts | 75° |
| 2026-05-07 10:58 | 52.00576 | 1.76667 | 27203 ft | 420 kts | 76° |
| 2026-05-07 10:58 | 52.01259 | 1.81291 | 27661 ft | 421 kts | 76° |
| 2026-05-07 10:58 | 52.01936 | 1.85904 | 28202 ft | 420 kts | 76° |
| 2026-05-07 10:58 | 52.02618 | 1.90492 | 28903 ft | 415 kts | 76° |
| 2026-05-07 10:59 | 52.03305 | 1.95029 | 29580 ft | 412 kts | 76° |
| 2026-05-07 10:59 | 52.03992 | 1.99523 | 30166 ft | 410 kts | 76° |
| 2026-05-07 10:59 | 52.04682 | 2.04007 | 30578 ft | 410 kts | 76° |
| 2026-05-07 10:59 | 52.05376 | 2.08507 | 30950 ft | 411 kts | 76° |
| 2026-05-07 11:00 | 52.06068 | 2.13005 | 31383 ft | 410 kts | 76° |
| 2026-05-07 11:00 | 52.06757 | 2.17497 | 31815 ft | 409 kts | 76° |
| 2026-05-07 11:00 | 52.07442 | 2.21978 | 32192 ft | 409 kts | 76° |
| 2026-05-07 11:00 | 52.08126 | 2.26469 | 32581 ft | 409 kts | 76° |
| 2026-05-07 11:01 | 52.08806 | 2.30946 | 32979 ft | 408 kts | 76° |
| 2026-05-07 11:01 | 52.09258 | 2.33926 | 33118 ft | 411 kts | 76° |
| 2026-05-07 11:01 | 52.10631 | 2.43009 | 33091 ft | 412 kts | 76° |
| 2026-05-07 11:02 | 52.12042 | 2.51980 | 33100 ft | 409 kts | 73° |
| 2026-05-07 11:02 | 52.13733 | 2.60863 | 33112 ft | 412 kts | 72° |
| 2026-05-07 11:03 | 52.15469 | 2.69785 | 33099 ft | 415 kts | 72° |
| 2026-05-07 11:03 | 52.17180 | 2.78768 | 33099 ft | 416 kts | 72° |
| 2026-05-07 11:04 | 52.18870 | 2.87769 | 33101 ft | 416 kts | 72° |
| 2026-05-07 11:04 | 52.20542 | 2.96734 | 33099 ft | 414 kts | 73° |
| 2026-05-07 11:05 | 52.22210 | 3.05713 | 33105 ft | 413 kts | 73° |
| 2026-05-07 11:05 | 52.23869 | 3.14684 | 33105 ft | 414 kts | 73° |
| 2026-05-07 11:06 | 52.25484 | 3.23640 | 33098 ft | 413 kts | 76° |
| 2026-05-07 11:06 | 52.26142 | 3.32912 | 33096 ft | 411 kts | 85° |
| 2026-05-07 11:07 | 52.26544 | 3.42163 | 33085 ft | 408 kts | 85° |
| 2026-05-07 11:07 | 52.26956 | 3.51374 | 33083 ft | 407 kts | 85° |
| 2026-05-07 11:08 | 52.27387 | 3.60605 | 33106 ft | 408 kts | 85° |
| 2026-05-07 11:08 | 52.27820 | 3.69825 | 33107 ft | 411 kts | 85° |
| 2026-05-07 11:09 | 52.28252 | 3.79153 | 33102 ft | 414 kts | 85° |
| 2026-05-07 11:09 | 52.28683 | 3.88614 | 33098 ft | 416 kts | 85° |
| 2026-05-07 11:10 | 52.29105 | 3.98055 | 33086 ft | 418 kts | 85° |
| 2026-05-07 11:10 | 52.29521 | 4.07537 | 33088 ft | 419 kts | 85° |
| 2026-05-07 11:11 | 52.29929 | 4.17034 | 33081 ft | 420 kts | 85° |
| 2026-05-07 11:11 | 52.30330 | 4.26515 | 33086 ft | 420 kts | 86° |
| 2026-05-07 11:12 | 52.30724 | 4.36032 | 33079 ft | 419 kts | 86° |
| 2026-05-07 11:12 | 52.31108 | 4.45467 | 33077 ft | 419 kts | 86° |
| 2026-05-07 11:13 | 52.31485 | 4.54944 | 33076 ft | 417 kts | 86° |
| 2026-05-07 11:13 | 52.31854 | 4.64393 | 33066 ft | 416 kts | 86° |
| 2026-05-07 11:14 | 52.32214 | 4.73821 | 33076 ft | 415 kts | 86° |
| 2026-05-07 11:14 | 52.32566 | 4.83228 | 33078 ft | 415 kts | 86° |
| 2026-05-07 11:15 | 52.32912 | 4.92639 | 33076 ft | 415 kts | 86° |
| 2026-05-07 11:15 | 52.33251 | 5.02067 | 33067 ft | 416 kts | 87° |
| 2026-05-07 11:16 | 52.32891 | 5.11461 | 33078 ft | 416 kts | 104° |
| 2026-05-07 11:16 | 52.30931 | 5.20338 | 33076 ft | 416 kts | 112° |
| 2026-05-07 11:17 | 52.28751 | 5.29128 | 33072 ft | 418 kts | 112° |
| 2026-05-07 11:17 | 52.26624 | 5.37885 | 33075 ft | 420 kts | 112° |
| 2026-05-07 11:18 | 52.24478 | 5.46793 | 33059 ft | 421 kts | 112° |
| 2026-05-07 11:18 | 52.22326 | 5.55675 | 33069 ft | 421 kts | 112° |
| 2026-05-07 11:19 | 52.20169 | 5.64562 | 33048 ft | 421 kts | 113° |
| 2026-05-07 11:19 | 52.18009 | 5.73434 | 33051 ft | 421 kts | 112° |
| 2026-05-07 11:20 | 52.15846 | 5.82285 | 33045 ft | 420 kts | 113° |
| 2026-05-07 11:20 | 52.13680 | 5.91115 | 33054 ft | 420 kts | 112° |
| 2026-05-07 11:21 | 52.11513 | 5.99923 | 33047 ft | 419 kts | 113° |
| 2026-05-07 11:21 | 52.09461 | 6.08778 | 33039 ft | 419 kts | 105° |
| 2026-05-07 11:22 | 52.08443 | 6.18101 | 33044 ft | 419 kts | 99° |
| 2026-05-07 11:22 | 52.07542 | 6.27457 | 33046 ft | 419 kts | 100° |
| 2026-05-07 11:23 | 52.06535 | 6.36611 | 32971 ft | 404 kts | 103° |
| 2026-05-07 11:23 | 52.06016 | 6.41083 | 32378 ft | 405 kts | 100° |
| 2026-05-07 11:23 | 52.05569 | 6.45677 | 31299 ft | 420 kts | 99° |
| 2026-05-07 11:24 | 52.05131 | 6.50325 | 31100 ft | 411 kts | 99° |
| 2026-05-07 11:24 | 52.04685 | 6.54866 | 30809 ft | 405 kts | 99° |
| 2026-05-07 11:24 | 52.04226 | 6.59341 | 30552 ft | 398 kts | 100° |
| 2026-05-07 11:24 | 52.03762 | 6.63733 | 30299 ft | 392 kts | 100° |
| 2026-05-07 11:25 | 52.03299 | 6.68061 | 30034 ft | 386 kts | 100° |
| 2026-05-07 11:25 | 52.02840 | 6.72320 | 29739 ft | 380 kts | 101° |
| 2026-05-07 11:25 | 52.02160 | 6.76422 | 29399 ft | 374 kts | 111° |
| 2026-05-07 11:25 | 52.01059 | 6.80206 | 29050 ft | 369 kts | 121° |
| 2026-05-07 11:26 | 51.99733 | 6.83740 | 28691 ft | 365 kts | 123° |
| 2026-05-07 11:26 | 51.98393 | 6.87214 | 28340 ft | 362 kts | 123° |
| 2026-05-07 11:26 | 51.97062 | 6.90659 | 27981 ft | 359 kts | 123° |
| 2026-05-07 11:26 | 51.95750 | 6.94075 | 27644 ft | 355 kts | 123° |
| 2026-05-07 11:27 | 51.94454 | 6.97468 | 27281 ft | 353 kts | 122° |
| 2026-05-07 11:27 | 51.93172 | 7.00839 | 26956 ft | 350 kts | 122° |
| 2026-05-07 11:27 | 51.91903 | 7.04180 | 26606 ft | 348 kts | 122° |
| 2026-05-07 11:27 | 51.90640 | 7.07504 | 26270 ft | 345 kts | 123° |
| 2026-05-07 11:28 | 51.89384 | 7.10809 | 25927 ft | 343 kts | 122° |
| 2026-05-07 11:28 | 51.88136 | 7.14088 | 25608 ft | 341 kts | 122° |
| 2026-05-07 11:28 | 51.86894 | 7.17347 | 25280 ft | 339 kts | 123° |
| 2026-05-07 11:28 | 51.85660 | 7.20577 | 24951 ft | 337 kts | 123° |
| 2026-05-07 11:29 | 51.84431 | 7.23792 | 24632 ft | 335 kts | 123° |
| 2026-05-07 11:29 | 51.83204 | 7.26998 | 24316 ft | 334 kts | 123° |
| 2026-05-07 11:29 | 51.81982 | 7.30187 | 24003 ft | 335 kts | 123° |
| 2026-05-07 11:29 | 51.80730 | 7.33396 | 23395 ft | 342 kts | 127° |
| 2026-05-07 11:30 | 51.79108 | 7.36192 | 22466 ft | 353 kts | 144° |
| 2026-05-07 11:30 | 51.76936 | 7.38139 | 21526 ft | 363 kts | 161° |
| 2026-05-07 11:30 | 51.74541 | 7.39532 | 20892 ft | 367 kts | 161° |
| 2026-05-07 11:30 | 51.72110 | 7.40939 | 20448 ft | 365 kts | 161° |
| 2026-05-07 11:31 | 51.69771 | 7.42310 | 20001 ft | 363 kts | 161° |
| 2026-05-07 11:31 | 51.67379 | 7.43730 | 19289 ft | 370 kts | 161° |
| 2026-05-07 11:31 | 51.64962 | 7.45179 | 18737 ft | 371 kts | 161° |
| 2026-05-07 11:31 | 51.62573 | 7.46622 | 18494 ft | 362 kts | 161° |
| 2026-05-07 11:32 | 51.57993 | 7.49396 | 17935 ft | 338 kts | 161° |
| 2026-05-07 11:32 | 51.55843 | 7.50696 | 17647 ft | 332 kts | 161° |
| 2026-05-07 11:32 | 51.53701 | 7.51990 | 17367 ft | 326 kts | 161° |
| 2026-05-07 11:33 | 51.51593 | 7.53262 | 17119 ft | 321 kts | 161° |
| 2026-05-07 11:33 | 51.49482 | 7.54536 | 16849 ft | 318 kts | 161° |
| 2026-05-07 11:33 | 51.47505 | 7.55727 | 16588 ft | 316 kts | 161° |
| 2026-05-07 11:33 | 51.45488 | 7.56940 | 16340 ft | 314 kts | 161° |
| 2026-05-07 11:34 | 51.43452 | 7.58164 | 16087 ft | 312 kts | 161° |
| 2026-05-07 11:34 | 51.41438 | 7.59375 | 15848 ft | 307 kts | 161° |
| 2026-05-07 11:34 | 51.39497 | 7.60540 | 15551 ft | 306 kts | 161° |
| 2026-05-07 11:34 | 51.37518 | 7.61727 | 15251 ft | 304 kts | 161° |
| 2026-05-07 11:35 | 51.35542 | 7.62910 | 14948 ft | 303 kts | 161° |
| 2026-05-07 11:35 | 51.33561 | 7.64121 | 14531 ft | 306 kts | 160° |
| 2026-05-07 11:35 | 51.31575 | 7.65364 | 14172 ft | 307 kts | 159° |
| 2026-05-07 11:35 | 51.29574 | 7.66623 | 13669 ft | 313 kts | 159° |
| 2026-05-07 11:36 | 51.27540 | 7.67900 | 13225 ft | 315 kts | 159° |
| 2026-05-07 11:36 | 51.25505 | 7.69175 | 12916 ft | 313 kts | 159° |
| 2026-05-07 11:36 | 51.23495 | 7.70432 | 12664 ft | 308 kts | 159° |
| 2026-05-07 11:36 | 51.21536 | 7.71655 | 12372 ft | 301 kts | 159° |
| 2026-05-07 11:37 | 51.19582 | 7.72874 | 11886 ft | 304 kts | 159° |
| 2026-05-07 11:37 | 51.17612 | 7.74101 | 11527 ft | 304 kts | 159° |
| 2026-05-07 11:37 | 51.15715 | 7.75281 | 11283 ft | 299 kts | 159° |
| 2026-05-07 11:37 | 51.13798 | 7.76474 | 11029 ft | 297 kts | 159° |
| 2026-05-07 11:38 | 51.11880 | 7.77664 | 10781 ft | 296 kts | 159° |
| 2026-05-07 11:38 | 51.09956 | 7.78857 | 10541 ft | 298 kts | 159° |
| 2026-05-07 11:38 | 51.08091 | 7.79982 | 10307 ft | 297 kts | 163° |
| 2026-05-07 11:38 | 51.06072 | 7.80223 | 10016 ft | 293 kts | 191° |
| 2026-05-07 11:39 | 51.04181 | 7.79151 | 9774 ft | 287 kts | 207° |
| 2026-05-07 11:39 | 51.02428 | 7.77657 | 9424 ft | 286 kts | 210° |
| 2026-05-07 11:39 | 51.00682 | 7.76112 | 9038 ft | 285 kts | 210° |
| 2026-05-07 11:39 | 50.98956 | 7.74593 | 8569 ft | 285 kts | 210° |
| 2026-05-07 11:40 | 50.97214 | 7.73082 | 8090 ft | 285 kts | 210° |
| 2026-05-07 11:40 | 50.95471 | 7.71586 | 7764 ft | 284 kts | 210° |
| 2026-05-07 11:40 | 50.93741 | 7.70111 | 7503 ft | 281 kts | 209° |
| 2026-05-07 11:40 | 50.92022 | 7.68649 | 7172 ft | 281 kts | 210° |
| 2026-05-07 11:41 | 50.90296 | 7.67181 | 6852 ft | 280 kts | 210° |
| 2026-05-07 11:41 | 50.88578 | 7.65720 | 6528 ft | 280 kts | 210° |
| 2026-05-07 11:41 | 50.86860 | 7.64260 | 6238 ft | 280 kts | 210° |
| 2026-05-07 11:41 | 50.85152 | 7.62809 | 5983 ft | 278 kts | 210° |
| 2026-05-07 11:42 | 50.83452 | 7.61367 | 5764 ft | 276 kts | 210° |
| 2026-05-07 11:42 | 50.81765 | 7.59939 | 5502 ft | 275 kts | 210° |
| 2026-05-07 11:42 | 50.80079 | 7.58511 | 5283 ft | 273 kts | 210° |
| 2026-05-07 11:42 | 50.78416 | 7.57104 | 5118 ft | 269 kts | 210° |
| 2026-05-07 11:43 | 50.76772 | 7.55714 | 4914 ft | 267 kts | 209° |
| 2026-05-07 11:43 | 50.75141 | 7.54337 | 4719 ft | 265 kts | 210° |
| 2026-05-07 11:43 | 50.73534 | 7.52981 | 4633 ft | 257 kts | 210° |
| 2026-05-07 11:43 | 50.72112 | 7.51398 | 4539 ft | 246 kts | 233° |
| 2026-05-07 11:44 | 50.71389 | 7.49084 | 4469 ft | 228 kts | 257° |
| 2026-05-07 11:44 | 50.71098 | 7.46687 | 4309 ft | 219 kts | 264° |
| 2026-05-07 11:44 | 50.70895 | 7.44334 | 4168 ft | 213 kts | 265° |
| 2026-05-07 11:44 | 50.70700 | 7.42075 | 4061 ft | 203 kts | 265° |
| 2026-05-07 11:45 | 50.70523 | 7.39918 | 3944 ft | 194 kts | 270° |
| 2026-05-07 11:45 | 50.70645 | 7.38565 | 3861 ft | 187 kts | 298° |
| 2026-05-07 11:45 | 50.71514 | 7.37121 | 3827 ft | 182 kts | 325° |
| 2026-05-07 11:45 | 50.72442 | 7.35745 | 3783 ft | 183 kts | 312° |
| 2026-05-07 11:46 | 50.73323 | 7.34281 | 3601 ft | 184 kts | 319° |
| 2026-05-07 11:46 | 50.74272 | 7.32917 | 3358 ft | 185 kts | 319° |
| 2026-05-07 11:46 | 50.75216 | 7.31558 | 3111 ft | 183 kts | 318° |
| 2026-05-07 11:46 | 50.76150 | 7.30203 | 2870 ft | 181 kts | 319° |
| 2026-05-07 11:47 | 50.77065 | 7.28872 | 2615 ft | 177 kts | 318° |
| 2026-05-07 11:47 | 50.77954 | 7.27577 | 2374 ft | 172 kts | 319° |
| 2026-05-07 11:47 | 50.78824 | 7.26311 | 2150 ft | 169 kts | 319° |
| 2026-05-07 11:47 | 50.79689 | 7.25051 | 1920 ft | 170 kts | 318° |
| 2026-05-07 11:48 | 50.80560 | 7.23783 | 1684 ft | 170 kts | 319° |
| 2026-05-07 11:48 | 50.81418 | 7.22535 | 1447 ft | 164 kts | 319° |
| 2026-05-07 11:48 | 50.82219 | 7.21370 | 1223 ft | 149 kts | 319° |
| 2026-05-07 11:48 | 50.82960 | 7.20290 | 1042 ft | 145 kts | 319° |
| 2026-05-07 11:49 | 50.83701 | 7.19209 | 831 ft | 144 kts | 318° |
| 2026-05-07 11:49 | 50.84426 | 7.18163 | 656 ft | 140 kts | 317° |
| 2026-05-07 11:49 | 50.85145 | 7.17107 | 458 ft | 142 kts | 318° |
| 2026-05-07 11:49 | 50.85866 | 7.16066 | 311 ft | 139 kts | 318° |
| 2026-05-07 11:50 | 50.86500 | 7.15149 | 279 ft | 105 kts | 318° |
| 2026-05-07 11:50 | 50.86931 | 7.14525 | 258 ft | 62 kts | 317° |
| 2026-05-07 11:50 | 50.87165 | 7.14185 | 247 ft | 29 kts | 317° |
| 2026-05-07 11:50 | 50.87278 | 7.13952 | 241 ft | 26 kts | 296° |
| 2026-05-07 11:51 | 50.87322 | 7.13689 | 237 ft | 24 kts | 279° |
| 2026-05-07 11:51 | 50.87358 | 7.13458 | 231 ft | 21 kts | 302° |
| 2026-05-07 11:51 | 50.87465 | 7.13302 | 232 ft | 21 kts | 317° |
| 2026-05-07 11:51 | 50.87567 | 7.13146 | 232 ft | 20 kts | 316° |
| 2026-05-07 11:52 | 50.87668 | 7.12998 | 232 ft | 19 kts | 319° |
| 2026-05-07 11:52 | 50.87738 | 7.12898 | 232 ft | 11 kts | 317° |
| 2026-05-07 11:52 | 50.87787 | 7.12807 | 231 ft | 11 kts | 284° |
| 2026-05-07 11:52 | 50.87780 | 7.12687 | 231 ft | 11 kts | 266° |
| 2026-05-07 11:53 | 50.87805 | 7.12575 | 231 ft | 11 kts | 304° |
| 2026-05-07 11:53 | 50.87827 | 7.12489 | 231 ft | 8 kts | 288° |
| 2026-05-07 11:53 | 50.87834 | 7.12455 | 234 ft | 0 kts | 288° |